sensor_id;sensor_type;location;lat;lon;timestamp;pressure;altitude;pressure_sealevel;temperature;humidity
13027;BME280;6580;42.680;23.324;2023-11-21T00:00:56;95159.25;;;5.20;100.00
13027;BME280;6580;42.680;23.324;2023-11-21T00:03:43;95164.53;;;5.20;100.00
13027;BME280;6580;42.680;23.324;2023-11-21T00:06:30;95169.16;;;5.07;100.00
13027;BME280;6580;42.680;23.324;2023-11-21T00:09:16;95173.41;;;5.19;100.00
13027;BME280;6580;42.680;23.324;2023-11-21T00:12:04;95158.88;;;5.25;100.00
13027;BME280;6580;42.680;23.324;2023-11-21T00:14:50;95164.28;;;5.23;100.00
13027;BME280;6580;42.680;23.324;2023-11-21T00:17:37;95173.41;;;5.19;100.00
13027;BME280;6580;42.680;23.324;2023-11-21T00:20:24;95173.50;;;4.97;100.00
13027;BME280;6580;42.680;23.324;2023-11-21T00:23:10;95162.22;;;5.06;100.00
13027;BME280;6580;42.680;23.324;2023-11-21T00:25:56;95169.69;;;5.22;100.00
13027;BME280;6580;42.680;23.324;2023-11-21T00:28:45;95158.94;;;5.34;100.00
13027;BME280;6580;42.680;23.324;2023-11-21T00:31:32;95152.69;;;5.35;100.00
13027;BME280;6580;42.680;23.324;2023-11-21T00:34:21;95157.41;;;5.32;100.00
13027;BME280;6580;42.680;23.324;2023-11-21T00:37:12;95165.25;;;5.22;100.00
13027;BME280;6580;42.680;23.324;2023-11-21T00:39:58;95153.09;;;5.31;100.00
13027;BME280;6580;42.680;23.324;2023-11-21T00:42:44;95158.88;;;5.25;100.00
13027;BME280;6580;42.680;23.324;2023-11-21T00:45:30;95156.28;;;5.34;100.00
13027;BME280;6580;42.680;23.324;2023-11-21T00:48:23;95161.91;;;5.20;100.00
13027;BME280;6580;42.680;23.324;2023-11-21T00:51:10;95168.72;;;5.23;100.00
13027;BME280;6580;42.680;23.324;2023-11-21T00:53:56;95157.16;;;5.35;100.00
13027;BME280;6580;42.680;23.324;2023-11-21T00:56:42;95155.41;;;5.24;100.00
13027;BME280;6580;42.680;23.324;2023-11-21T00:59:28;95150.63;;;4.98;100.00
13027;BME280;6580;42.680;23.324;2023-11-21T01:02:14;95143.28;;;5.01;100.00
13027;BME280;6580;42.680;23.324;2023-11-21T01:05:00;95136.25;;;5.11;100.00
13027;BME280;6580;42.680;23.324;2023-11-21T01:07:49;95146.47;;;5.05;100.00
13027;BME280;6580;42.680;23.324;2023-11-21T01:10:35;95152.47;;;5.07;100.00
13027;BME280;6580;42.680;23.324;2023-11-21T01:13:20;95119.94;;;4.86;100.00
13027;BME280;6580;42.680;23.324;2023-11-21T01:16:07;95131.53;;;4.95;100.00
13027;BME280;6580;42.680;23.324;2023-11-21T01:18:52;95131.94;;;5.10;100.00
13027;BME280;6580;42.680;23.324;2023-11-21T01:21:38;95147.59;;;5.02;100.00
13027;BME280;6580;42.680;23.324;2023-11-21T01:24:27;95149.44;;;5.11;100.00
13027;BME280;6580;42.680;23.324;2023-11-21T01:27:13;95124.16;;;5.09;100.00
13027;BME280;6580;42.680;23.324;2023-11-21T01:29:59;95140.97;;;4.77;100.00
13027;BME280;6580;42.680;23.324;2023-11-21T01:32:47;95129.16;;;4.92;100.00
13027;BME280;6580;42.680;23.324;2023-11-21T01:35:32;95145.88;;;4.81;100.00
13027;BME280;6580;42.680;23.324;2023-11-21T01:38:18;95142.16;;;5.04;100.00
13027;BME280;6580;42.680;23.324;2023-11-21T01:41:05;95150.56;;;4.78;100.00
13027;BME280;6580;42.680;23.324;2023-11-21T01:43:51;95152.47;;;4.76;100.00
13027;BME280;6580;42.680;23.324;2023-11-21T01:46:38;95150.94;;;4.73;100.00
13027;BME280;6580;42.680;23.324;2023-11-21T01:49:24;95144.22;;;4.80;100.00
13027;BME280;6580;42.680;23.324;2023-11-21T01:52:10;95136.81;;;4.95;100.00
13027;BME280;6580;42.680;23.324;2023-11-21T01:54:58;95131.13;;;4.79;100.00
13027;BME280;6580;42.680;23.324;2023-11-21T01:57:47;95119.97;;;4.44;100.00
13027;BME280;6580;42.680;23.324;2023-11-21T02:00:34;95139.00;;;4.47;100.00
13027;BME280;6580;42.680;23.324;2023-11-21T02:03:22;95145.38;;;4.45;100.00
13027;BME280;6580;42.680;23.324;2023-11-21T02:06:10;95140.53;;;4.61;100.00
13027;BME280;6580;42.680;23.324;2023-11-21T02:08:58;95120.69;;;4.46;100.00
13027;BME280;6580;42.680;23.324;2023-11-21T02:11:44;95152.16;;;4.69;100.00
13027;BME280;6580;42.680;23.324;2023-11-21T02:14:31;95145.03;;;4.38;100.00
13027;BME280;6580;42.680;23.324;2023-11-21T02:17:18;95108.53;;;4.34;100.00
13027;BME280;6580;42.680;23.324;2023-11-21T02:20:05;95130.13;;;4.91;100.00
13027;BME280;6580;42.680;23.324;2023-11-21T02:22:53;95139.19;;;4.77;100.00
13027;BME280;6580;42.680;23.324;2023-11-21T02:25:44;95131.38;;;4.76;100.00
13027;BME280;6580;42.680;23.324;2023-11-21T02:28:31;95136.69;;;4.65;100.00
13027;BME280;6580;42.680;23.324;2023-11-21T02:31:17;95129.75;;;4.64;100.00
13027;BME280;6580;42.680;23.324;2023-11-21T02:34:03;95125.25;;;4.55;100.00
13027;BME280;6580;42.680;23.324;2023-11-21T02:36:57;95135.31;;;4.50;100.00
13027;BME280;6580;42.680;23.324;2023-11-21T02:39:44;95114.28;;;4.28;100.00
13027;BME280;6580;42.680;23.324;2023-11-21T02:42:30;95123.44;;;4.55;100.00
13027;BME280;6580;42.680;23.324;2023-11-21T02:45:17;95135.47;;;4.37;100.00
13027;BME280;6580;42.680;23.324;2023-11-21T02:48:05;95129.84;;;4.31;100.00
13027;BME280;6580;42.680;23.324;2023-11-21T02:50:51;95135.56;;;4.47;100.00
13027;BME280;6580;42.680;23.324;2023-11-21T02:53:37;95134.66;;;4.26;100.00
13027;BME280;6580;42.680;23.324;2023-11-21T02:56:24;95132.38;;;4.21;100.00
13027;BME280;6580;42.680;23.324;2023-11-21T02:59:11;95131.28;;;4.24;100.00
13027;BME280;6580;42.680;23.324;2023-11-21T03:01:58;95138.84;;;4.17;100.00
13027;BME280;6580;42.680;23.324;2023-11-21T03:04:44;95131.41;;;4.11;100.00
13027;BME280;6580;42.680;23.324;2023-11-21T03:07:30;95127.22;;;4.20;100.00
13027;BME280;6580;42.680;23.324;2023-11-21T03:10:16;95123.09;;;4.38;100.00
13027;BME280;6580;42.680;23.324;2023-11-21T03:13:03;95133.31;;;4.31;100.00
13027;BME280;6580;42.680;23.324;2023-11-21T03:15:50;95124.78;;;4.39;100.00
13027;BME280;6580;42.680;23.324;2023-11-21T03:18:38;95134.16;;;4.21;100.00
13027;BME280;6580;42.680;23.324;2023-11-21T03:21:24;95133.31;;;4.42;100.00
13027;BME280;6580;42.680;23.324;2023-11-21T03:24:10;95139.41;;;4.43;100.00
13027;BME280;6580;42.680;23.324;2023-11-21T03:26:55;95127.31;;;4.29;100.00
13027;BME280;6580;42.680;23.324;2023-11-21T03:29:42;95145.53;;;4.32;100.00
13027;BME280;6580;42.680;23.324;2023-11-21T03:32:29;95149.97;;;4.21;100.00
13027;BME280;6580;42.680;23.324;2023-11-21T03:35:17;95152.09;;;4.38;100.00
13027;BME280;6580;42.680;23.324;2023-11-21T03:38:05;95144.31;;;4.36;100.00
13027;BME280;6580;42.680;23.324;2023-11-21T03:40:51;95138.97;;;4.16;100.00
13027;BME280;6580;42.680;23.324;2023-11-21T03:43:37;95132.84;;;4.26;100.00
13027;BME280;6580;42.680;23.324;2023-11-21T03:46:24;95132.53;;;4.51;100.00
13027;BME280;6580;42.680;23.324;2023-11-21T03:49:12;95114.72;;;4.44;100.00
13027;BME280;6580;42.680;23.324;2023-11-21T03:51:59;95126.50;;;4.29;100.00
13027;BME280;6580;42.680;23.324;2023-11-21T03:54:48;95115.09;;;4.39;100.00
13027;BME280;6580;42.680;23.324;2023-11-21T03:57:34;95116.78;;;4.29;100.00
13027;BME280;6580;42.680;23.324;2023-11-21T04:00:21;95122.56;;;4.23;100.00
13027;BME280;6580;42.680;23.324;2023-11-21T04:03:11;95116.44;;;4.23;100.00
13027;BME280;6580;42.680;23.324;2023-11-21T04:05:57;95118.88;;;4.46;100.00
13027;BME280;6580;42.680;23.324;2023-11-21T04:08:43;95111.13;;;4.45;100.00
13027;BME280;6580;42.680;23.324;2023-11-21T04:11:29;95116.13;;;4.48;100.00
13027;BME280;6580;42.680;23.324;2023-11-21T04:14:15;95111.53;;;4.61;100.00
13027;BME280;6580;42.680;23.324;2023-11-21T04:17:01;95102.28;;;4.35;100.00
13027;BME280;6580;42.680;23.324;2023-11-21T04:19:49;95109.63;;;4.20;100.00
13027;BME280;6580;42.680;23.324;2023-11-21T04:22:36;95110.63;;;4.51;100.00
13027;BME280;6580;42.680;23.324;2023-11-21T04:25:22;95108.72;;;4.42;100.00
13027;BME280;6580;42.680;23.324;2023-11-21T04:28:12;95104.63;;;4.49;100.00
13027;BME280;6580;42.680;23.324;2023-11-21T04:30:58;95107.47;;;4.25;100.00
13027;BME280;6580;42.680;23.324;2023-11-21T04:33:45;95112.59;;;4.27;100.00
13027;BME280;6580;42.680;23.324;2023-11-21T04:36:32;95108.28;;;4.26;100.00
13027;BME280;6580;42.680;23.324;2023-11-21T04:39:18;95091.28;;;4.19;100.00
13027;BME280;6580;42.680;23.324;2023-11-21T04:42:04;95111.78;;;4.26;100.00
13027;BME280;6580;42.680;23.324;2023-11-21T04:44:51;95115.00;;;4.19;100.00
13027;BME280;6580;42.680;23.324;2023-11-21T04:47:36;95112.25;;;4.09;100.00
13027;BME280;6580;42.680;23.324;2023-11-21T04:50:22;95119.00;;;4.02;100.00
13027;BME280;6580;42.680;23.324;2023-11-21T04:53:11;95122.78;;;4.09;100.00
13027;BME280;6580;42.680;23.324;2023-11-21T04:56:00;95111.69;;;3.95;100.00
13027;BME280;6580;42.680;23.324;2023-11-21T04:58:46;95122.34;;;4.04;100.00
13027;BME280;6580;42.680;23.324;2023-11-21T05:01:35;95114.91;;;3.98;100.00
13027;BME280;6580;42.680;23.324;2023-11-21T05:04:22;95121.25;;;4.07;100.00
13027;BME280;6580;42.680;23.324;2023-11-21T05:07:08;95124.97;;;4.04;100.00
13027;BME280;6580;42.680;23.324;2023-11-21T05:09:56;95132.53;;;3.87;100.00
13027;BME280;6580;42.680;23.324;2023-11-21T05:12:42;95112.34;;;4.19;100.00
13027;BME280;6580;42.680;23.324;2023-11-21T05:15:31;95119.34;;;4.09;100.00
13027;BME280;6580;42.680;23.324;2023-11-21T05:18:17;95109.38;;;4.23;100.00
13027;BME280;6580;42.680;23.324;2023-11-21T05:21:03;95107.75;;;4.43;100.00
13027;BME280;6580;42.680;23.324;2023-11-21T05:23:49;95104.94;;;4.24;100.00
13027;BME280;6580;42.680;23.324;2023-11-21T05:26:36;95110.81;;;4.27;100.00
13027;BME280;6580;42.680;23.324;2023-11-21T05:29:24;95109.09;;;4.37;100.00
13027;BME280;6580;42.680;23.324;2023-11-21T05:32:11;95121.31;;;4.38;100.00
13027;BME280;6580;42.680;23.324;2023-11-21T05:35:02;95121.56;;;4.35;100.00
13027;BME280;6580;42.680;23.324;2023-11-21T05:37:53;95132.59;;;4.29;100.00
13027;BME280;6580;42.680;23.324;2023-11-21T05:40:41;95130.31;;;4.36;100.00
13027;BME280;6580;42.680;23.324;2023-11-21T05:43:30;95125.75;;;4.38;100.00
13027;BME280;6580;42.680;23.324;2023-11-21T05:46:17;95134.38;;;4.40;100.00
13027;BME280;6580;42.680;23.324;2023-11-21T05:49:03;95127.16;;;4.42;100.00
13027;BME280;6580;42.680;23.324;2023-11-21T05:51:50;95122.00;;;4.51;100.00
13027;BME280;6580;42.680;23.324;2023-11-21T05:54:38;95120.94;;;4.54;100.00
13027;BME280;6580;42.680;23.324;2023-11-21T05:57:23;95124.34;;;4.34;100.00
13027;BME280;6580;42.680;23.324;2023-11-21T06:00:14;95129.53;;;4.56;100.00
13027;BME280;6580;42.680;23.324;2023-11-21T06:03:05;95118.72;;;4.59;100.00
13027;BME280;6580;42.680;23.324;2023-11-21T06:05:51;95123.56;;;4.54;100.00
13027;BME280;6580;42.680;23.324;2023-11-21T06:08:40;95118.47;;;4.62;100.00
13027;BME280;6580;42.680;23.324;2023-11-21T06:11:27;95126.19;;;4.85;100.00
13027;BME280;6580;42.680;23.324;2023-11-21T06:14:14;95128.53;;;4.68;100.00
13027;BME280;6580;42.680;23.324;2023-11-21T06:17:03;95120.91;;;4.85;100.00
13027;BME280;6580;42.680;23.324;2023-11-21T06:19:49;95114.16;;;4.72;100.00
13027;BME280;6580;42.680;23.324;2023-11-21T06:22:37;95127.94;;;4.64;100.00
13027;BME280;6580;42.680;23.324;2023-11-21T06:25:22;95139.38;;;4.85;100.00
13027;BME280;6580;42.680;23.324;2023-11-21T06:28:08;95152.88;;;4.92;100.00
13027;BME280;6580;42.680;23.324;2023-11-21T06:30:54;95139.75;;;5.12;100.00
13027;BME280;6580;42.680;23.324;2023-11-21T06:33:42;95111.63;;;4.70;100.00
13027;BME280;6580;42.680;23.324;2023-11-21T06:36:27;95139.34;;;5.16;100.00
13027;BME280;6580;42.680;23.324;2023-11-21T06:39:13;95157.81;;;5.16;100.00
13027;BME280;6580;42.680;23.324;2023-11-21T06:42:01;95158.06;;;5.13;100.00
13027;BME280;6580;42.680;23.324;2023-11-21T06:44:47;95150.78;;;5.06;100.00
13027;BME280;6580;42.680;23.324;2023-11-21T06:47:36;95161.56;;;5.14;100.00
13027;BME280;6580;42.680;23.324;2023-11-21T06:50:26;95157.66;;;5.29;100.00
13027;BME280;6580;42.680;23.324;2023-11-21T06:53:12;95152.75;;;5.45;100.00
13027;BME280;6580;42.680;23.324;2023-11-21T06:55:59;95142.88;;;5.67;100.00
13027;BME280;6580;42.680;23.324;2023-11-21T06:58:46;95152.88;;;5.84;100.00
13027;BME280;6580;42.680;23.324;2023-11-21T07:01:37;95145.84;;;5.94;100.00
13027;BME280;6580;42.680;23.324;2023-11-21T07:04:25;95151.94;;;5.95;100.00
13027;BME280;6580;42.680;23.324;2023-11-21T07:07:13;95144.00;;;6.24;100.00
13027;BME280;6580;42.680;23.324;2023-11-21T07:10:01;95141.44;;;6.13;100.00
13027;BME280;6580;42.680;23.324;2023-11-21T07:12:47;95139.84;;;5.92;100.00
13027;BME280;6580;42.680;23.324;2023-11-21T07:15:32;95127.00;;;6.17;100.00
13027;BME280;6580;42.680;23.324;2023-11-21T07:18:18;95132.16;;;6.19;100.00
13027;BME280;6580;42.680;23.324;2023-11-21T07:21:04;95133.25;;;6.16;100.00
13027;BME280;6580;42.680;23.324;2023-11-21T07:23:51;95138.03;;;6.22;100.00
13027;BME280;6580;42.680;23.324;2023-11-21T07:26:37;95130.44;;;6.48;100.00
13027;BME280;6580;42.680;23.324;2023-11-21T07:29:23;95137.41;;;6.49;100.00
13027;BME280;6580;42.680;23.324;2023-11-21T07:32:10;95125.09;;;6.29;100.00
13027;BME280;6580;42.680;23.324;2023-11-21T07:34:57;95146.44;;;6.56;100.00
13027;BME280;6580;42.680;23.324;2023-11-21T07:37:45;95128.81;;;6.75;100.00
13027;BME280;6580;42.680;23.324;2023-11-21T07:40:34;95135.09;;;7.03;100.00
13027;BME280;6580;42.680;23.324;2023-11-21T07:43:22;95131.59;;;7.21;100.00
13027;BME280;6580;42.680;23.324;2023-11-21T07:46:07;95124.78;;;7.37;100.00
13027;BME280;6580;42.680;23.324;2023-11-21T07:48:53;95127.41;;;7.37;100.00
13027;BME280;6580;42.680;23.324;2023-11-21T07:51:39;95109.03;;;7.26;100.00
13027;BME280;6580;42.680;23.324;2023-11-21T07:54:26;95126.88;;;7.43;100.00
13027;BME280;6580;42.680;23.324;2023-11-21T07:57:13;95114.28;;;7.64;100.00
13027;BME280;6580;42.680;23.324;2023-11-21T07:59:59;95116.34;;;7.70;100.00
13027;BME280;6580;42.680;23.324;2023-11-21T08:02:48;95114.03;;;7.10;100.00
13027;BME280;6580;42.680;23.324;2023-11-21T08:05:33;95107.06;;;7.28;100.00
13027;BME280;6580;42.680;23.324;2023-11-21T08:08:22;95104.94;;;7.60;100.00
13027;BME280;6580;42.680;23.324;2023-11-21T08:11:15;95102.56;;;7.57;100.00
13027;BME280;6580;42.680;23.324;2023-11-21T08:14:04;95105.75;;;8.16;100.00
13027;BME280;6580;42.680;23.324;2023-11-21T08:16:50;95105.53;;;8.27;100.00
13027;BME280;6580;42.680;23.324;2023-11-21T08:19:36;95113.47;;;8.36;100.00
13027;BME280;6580;42.680;23.324;2023-11-21T08:22:22;95107.19;;;7.92;100.00
13027;BME280;6580;42.680;23.324;2023-11-21T08:25:11;95109.25;;;7.61;100.00
13027;BME280;6580;42.680;23.324;2023-11-21T08:27:56;95099.59;;;8.06;100.00
13027;BME280;6580;42.680;23.324;2023-11-21T08:30:44;95092.75;;;8.40;100.00
13027;BME280;6580;42.680;23.324;2023-11-21T08:33:30;95101.47;;;8.77;100.00
13027;BME280;6580;42.680;23.324;2023-11-21T08:36:24;95099.34;;;9.32;96.78
13027;BME280;6580;42.680;23.324;2023-11-21T08:39:10;95098.84;;;9.11;96.96
13027;BME280;6580;42.680;23.324;2023-11-21T08:41:57;95103.25;;;9.20;95.89
13027;BME280;6580;42.680;23.324;2023-11-21T08:44:44;95090.47;;;9.24;95.47
13027;BME280;6580;42.680;23.324;2023-11-21T08:47:31;95095.50;;;9.27;96.96
13027;BME280;6580;42.680;23.324;2023-11-21T08:50:17;95098.75;;;9.38;96.08
13027;BME280;6580;42.680;23.324;2023-11-21T08:53:03;95079.34;;;9.20;93.82
13027;BME280;6580;42.680;23.324;2023-11-21T08:55:49;95093.09;;;9.16;95.38
13027;BME280;6580;42.680;23.324;2023-11-21T08:58:35;95081.84;;;8.87;97.82
13027;BME280;6580;42.680;23.324;2023-11-21T09:01:22;95070.13;;;9.32;96.83
13027;BME280;6580;42.680;23.324;2023-11-21T09:04:10;95058.78;;;9.48;95.20
13027;BME280;6580;42.680;23.324;2023-11-21T09:06:56;95057.69;;;9.58;94.28
13027;BME280;6580;42.680;23.324;2023-11-21T09:09:44;95045.28;;;9.41;93.87
13027;BME280;6580;42.680;23.324;2023-11-21T09:12:30;95032.47;;;9.62;95.08
13027;BME280;6580;42.680;23.324;2023-11-21T09:15:16;95020.47;;;9.58;93.25
13027;BME280;6580;42.680;23.324;2023-11-21T09:18:02;95013.19;;;9.60;94.79
13027;BME280;6580;42.680;23.324;2023-11-21T09:20:50;95007.22;;;9.66;93.69
13027;BME280;6580;42.680;23.324;2023-11-21T09:23:36;95019.78;;;9.82;93.09
13027;BME280;6580;42.680;23.324;2023-11-21T09:26:22;95012.97;;;9.87;93.41
13027;BME280;6580;42.680;23.324;2023-11-21T09:29:08;95000.25;;;9.99;92.92
13027;BME280;6580;42.680;23.324;2023-11-21T09:31:53;94987.53;;;10.10;91.52
13027;BME280;6580;42.680;23.324;2023-11-21T09:34:39;94974.94;;;10.28;89.77
13027;BME280;6580;42.680;23.324;2023-11-21T09:37:27;94977.41;;;10.21;90.18
13027;BME280;6580;42.680;23.324;2023-11-21T09:40:13;94962.38;;;10.54;87.66
13027;BME280;6580;42.680;23.324;2023-11-21T09:43:04;94962.53;;;10.84;87.06
13027;BME280;6580;42.680;23.324;2023-11-21T09:45:55;94958.53;;;11.28;81.83
13027;BME280;6580;42.680;23.324;2023-11-21T09:48:43;94949.03;;;11.41;81.42
13027;BME280;6580;42.680;23.324;2023-11-21T09:51:29;94941.72;;;11.19;80.91
13027;BME280;6580;42.680;23.324;2023-11-21T09:54:18;94923.09;;;10.72;83.95
13027;BME280;6580;42.680;23.324;2023-11-21T09:57:05;94917.09;;;10.78;85.90
13027;BME280;6580;42.680;23.324;2023-11-21T09:59:52;94911.03;;;11.31;84.02
13027;BME280;6580;42.680;23.324;2023-11-21T10:02:40;94916.84;;;11.51;79.79
13027;BME280;6580;42.680;23.324;2023-11-21T10:05:29;94896.09;;;12.15;77.43
13027;BME280;6580;42.680;23.324;2023-11-21T10:08:19;94913.78;;;12.16;76.61
13027;BME280;6580;42.680;23.324;2023-11-21T10:11:10;94890.94;;;12.81;73.67
13027;BME280;6580;42.680;23.324;2023-11-21T10:13:59;94901.03;;;13.81;68.49
13027;BME280;6580;42.680;23.324;2023-11-21T10:16:47;94890.75;;;13.99;65.07
13027;BME280;6580;42.680;23.324;2023-11-21T10:19:37;94877.06;;;14.58;62.39
13027;BME280;6580;42.680;23.324;2023-11-21T10:22:24;94877.34;;;14.28;62.88
13027;BME280;6580;42.680;23.324;2023-11-21T10:25:10;94862.50;;;13.97;62.75
13027;BME280;6580;42.680;23.324;2023-11-21T10:28:01;94875.31;;;14.30;62.23
13027;BME280;6580;42.680;23.324;2023-11-21T10:30:49;94865.94;;;13.76;62.84
13027;BME280;6580;42.680;23.324;2023-11-21T10:33:34;94869.44;;;13.33;64.07
13027;BME280;6580;42.680;23.324;2023-11-21T10:36:26;94855.31;;;13.25;65.48
13027;BME280;6580;42.680;23.324;2023-11-21T10:39:14;94856.53;;;13.37;65.76
13027;BME280;6580;42.680;23.324;2023-11-21T10:42:03;94838.81;;;13.36;64.92
13027;BME280;6580;42.680;23.324;2023-11-21T10:44:52;94856.41;;;13.30;64.70
13027;BME280;6580;42.680;23.324;2023-11-21T10:47:55;94856.94;;;12.97;68.05
13027;BME280;6580;42.680;23.324;2023-11-21T10:50:41;94857.16;;;12.88;68.74
13027;BME280;6580;42.680;23.324;2023-11-21T10:53:28;94844.78;;;12.27;69.03
13027;BME280;6580;42.680;23.324;2023-11-21T10:56:15;94848.50;;;12.18;70.22
13027;BME280;6580;42.680;23.324;2023-11-21T10:59:05;94826.47;;;11.94;70.87
13027;BME280;6580;42.680;23.324;2023-11-21T11:01:57;94840.47;;;11.96;71.47
13027;BME280;6580;42.680;23.324;2023-11-21T11:04:48;94835.69;;;11.92;71.95
13027;BME280;6580;42.680;23.324;2023-11-21T11:07:43;94840.72;;;11.79;72.98
13027;BME280;6580;42.680;23.324;2023-11-21T11:10:30;94837.31;;;11.93;72.82
13027;BME280;6580;42.680;23.324;2023-11-21T11:13:16;94830.94;;;12.02;72.07
13027;BME280;6580;42.680;23.324;2023-11-21T11:16:03;94817.72;;;12.08;71.45
13027;BME280;6580;42.680;23.324;2023-11-21T11:18:51;94828.94;;;11.65;72.55
13027;BME280;6580;42.680;23.324;2023-11-21T11:21:46;94817.03;;;11.84;71.57
13027;BME280;6580;42.680;23.324;2023-11-21T11:24:53;94806.47;;;11.90;70.40
13027;BME280;6580;42.680;23.324;2023-11-21T11:27:53;94793.09;;;11.98;69.16
13027;BME280;6580;42.680;23.324;2023-11-21T11:30:53;94795.34;;;12.09;69.77
13027;BME280;6580;42.680;23.324;2023-11-21T11:33:53;94793.03;;;12.06;69.39
13027;BME280;6580;42.680;23.324;2023-11-21T11:36:48;94772.22;;;11.79;71.28
13027;BME280;6580;42.680;23.324;2023-11-21T11:39:41;94794.09;;;11.97;72.80
13027;BME280;6580;42.680;23.324;2023-11-21T11:42:30;94754.25;;;11.65;71.75
13027;BME280;6580;42.680;23.324;2023-11-21T11:45:21;94798.88;;;11.79;73.73
13027;BME280;6580;42.680;23.324;2023-11-21T11:48:11;94808.59;;;11.72;73.85
13027;BME280;6580;42.680;23.324;2023-11-21T11:51:02;94805.47;;;11.61;76.58
13027;BME280;6580;42.680;23.324;2023-11-21T11:53:51;94801.13;;;11.60;80.28
13027;BME280;6580;42.680;23.324;2023-11-21T11:56:37;94785.94;;;11.68;80.84
13027;BME280;6580;42.680;23.324;2023-11-21T11:59:24;94798.03;;;11.79;80.19
13027;BME280;6580;42.680;23.324;2023-11-21T12:02:09;94781.66;;;11.51;80.50
13027;BME280;6580;42.680;23.324;2023-11-21T12:04:56;94795.75;;;11.29;82.18
13027;BME280;6580;42.680;23.324;2023-11-21T12:07:48;94795.31;;;11.10;84.89
13027;BME280;6580;42.680;23.324;2023-11-21T12:10:36;94796.78;;;11.20;90.26
13027;BME280;6580;42.680;23.324;2023-11-21T12:13:23;94811.78;;;11.13;91.37
13027;BME280;6580;42.680;23.324;2023-11-21T12:16:10;94814.97;;;11.09;100.00
13027;BME280;6580;42.680;23.324;2023-11-21T12:18:57;94797.78;;;11.27;100.00
13027;BME280;6580;42.680;23.324;2023-11-21T12:21:44;94801.47;;;11.10;100.00
13027;BME280;6580;42.680;23.324;2023-11-21T12:24:30;94797.03;;;10.95;100.00
13027;BME280;6580;42.680;23.324;2023-11-21T12:27:26;94800.25;;;10.67;98.70
13027;BME280;6580;42.680;23.324;2023-11-21T12:30:22;94797.94;;;10.64;100.00
13027;BME280;6580;42.680;23.324;2023-11-21T12:33:08;94806.25;;;10.69;100.00
13027;BME280;6580;42.680;23.324;2023-11-21T12:35:53;94817.06;;;10.51;100.00
13027;BME280;6580;42.680;23.324;2023-11-21T12:38:39;94807.75;;;10.47;100.00
13027;BME280;6580;42.680;23.324;2023-11-21T12:41:24;94806.44;;;10.59;100.00
13027;BME280;6580;42.680;23.324;2023-11-21T12:44:12;94805.59;;;10.51;100.00
13027;BME280;6580;42.680;23.324;2023-11-21T12:47:00;94805.44;;;10.52;100.00
13027;BME280;6580;42.680;23.324;2023-11-21T12:49:46;94790.13;;;10.54;100.00
13027;BME280;6580;42.680;23.324;2023-11-21T12:52:33;94783.31;;;10.44;100.00
13027;BME280;6580;42.680;23.324;2023-11-21T12:55:21;94765.38;;;10.14;100.00
13027;BME280;6580;42.680;23.324;2023-11-21T12:58:09;94772.19;;;10.24;100.00
13027;BME280;6580;42.680;23.324;2023-11-21T13:00:59;94766.34;;;10.29;100.00
13027;BME280;6580;42.680;23.324;2023-11-21T13:03:48;94767.69;;;10.33;100.00
13027;BME280;6580;42.680;23.324;2023-11-21T13:06:35;94757.53;;;10.20;100.00
13027;BME280;6580;42.680;23.324;2023-11-21T13:09:24;94749.22;;;10.31;100.00
13027;BME280;6580;42.680;23.324;2023-11-21T13:12:11;94763.50;;;10.46;100.00
13027;BME280;6580;42.680;23.324;2023-11-21T13:15:03;94765.03;;;10.25;100.00
13027;BME280;6580;42.680;23.324;2023-11-21T13:17:52;94759.38;;;10.12;100.00
13027;BME280;6580;42.680;23.324;2023-11-21T13:20:40;94765.34;;;10.46;100.00
13027;BME280;6580;42.680;23.324;2023-11-21T13:23:27;94765.50;;;10.60;100.00
13027;BME280;6580;42.680;23.324;2023-11-21T13:26:13;94746.88;;;10.36;100.00
13027;BME280;6580;42.680;23.324;2023-11-21T13:28:59;94745.22;;;10.43;100.00
13027;BME280;6580;42.680;23.324;2023-11-21T13:31:46;94740.19;;;10.48;100.00
13027;BME280;6580;42.680;23.324;2023-11-21T13:34:36;94747.00;;;10.67;100.00
13027;BME280;6580;42.680;23.324;2023-11-21T13:37:22;94747.69;;;10.53;100.00
13027;BME280;6580;42.680;23.324;2023-11-21T13:40:08;94747.06;;;10.27;100.00
13027;BME280;6580;42.680;23.324;2023-11-21T13:43:00;94740.06;;;10.34;100.00
13027;BME280;6580;42.680;23.324;2023-11-21T13:45:49;94745.72;;;10.31;100.00
13027;BME280;6580;42.680;23.324;2023-11-21T13:48:39;94722.41;;;10.41;100.00
13027;BME280;6580;42.680;23.324;2023-11-21T13:51:28;94741.25;;;10.23;100.00
13027;BME280;6580;42.680;23.324;2023-11-21T13:54:23;94733.41;;;10.30;100.00
13027;BME280;6580;42.680;23.324;2023-11-21T13:57:09;94734.72;;;10.42;100.00
13027;BME280;6580;42.680;23.324;2023-11-21T13:59:54;94711.78;;;10.25;100.00
13027;BME280;6580;42.680;23.324;2023-11-21T14:02:42;94732.91;;;10.34;100.00
13027;BME280;6580;42.680;23.324;2023-11-21T14:05:29;94728.09;;;10.30;100.00
13027;BME280;6580;42.680;23.324;2023-11-21T14:08:20;94733.72;;;10.43;100.00
13027;BME280;6580;42.680;23.324;2023-11-21T14:11:07;94731.88;;;10.59;100.00
13027;BME280;6580;42.680;23.324;2023-11-21T14:13:55;94735.75;;;10.33;100.00
13027;BME280;6580;42.680;23.324;2023-11-21T14:16:43;94747.91;;;10.27;100.00
13027;BME280;6580;42.680;23.324;2023-11-21T14:19:28;94742.06;;;10.32;100.00
13027;BME280;6580;42.680;23.324;2023-11-21T14:22:16;94735.09;;;10.31;100.00
13027;BME280;6580;42.680;23.324;2023-11-21T14:25:05;94746.22;;;10.34;100.00
13027;BME280;6580;42.680;23.324;2023-11-21T14:27:51;94747.06;;;10.27;100.00
13027;BME280;6580;42.680;23.324;2023-11-21T14:30:36;94738.06;;;10.36;100.00
13027;BME280;6580;42.680;23.324;2023-11-21T14:33:23;94732.78;;;10.12;100.00
13027;BME280;6580;42.680;23.324;2023-11-21T14:36:09;94740.06;;;10.02;100.00
13027;BME280;6580;42.680;23.324;2023-11-21T14:38:54;94716.09;;;9.86;100.00
13027;BME280;6580;42.680;23.324;2023-11-21T14:41:42;94719.09;;;9.75;100.00
13027;BME280;6580;42.680;23.324;2023-11-21T14:44:29;94733.41;;;9.98;100.00
13027;BME280;6580;42.680;23.324;2023-11-21T14:47:19;94733.28;;;10.08;100.00